createdAt,value
2018-05-06T00:00:41.074Z,51.70
2018-05-06T00:03:07.254Z,52.10
2018-05-06T00:05:33.472Z,52.60
2018-05-06T00:07:59.648Z,52.70
2018-05-06T00:10:25.866Z,52.60
2018-05-06T00:12:52.053Z,53.10
2018-05-06T00:15:18.278Z,53.10
2018-05-06T00:17:44.445Z,53.40
2018-05-06T00:20:10.649Z,53.50
2018-05-06T00:22:36.862Z,53.50
2018-05-06T00:25:03.063Z,53.40
2018-05-06T00:27:29.235Z,53.70
2018-05-06T00:29:55.425Z,53.90
2018-05-06T00:32:21.587Z,54.00
2018-05-06T00:34:47.815Z,54.50
2018-05-06T00:37:14.007Z,54.90
2018-05-06T00:39:40.950Z,55.70
2018-05-06T00:42:07.157Z,55.70
2018-05-06T00:44:33.339Z,56.10
2018-05-06T00:46:59.517Z,56.40
2018-05-06T00:49:25.698Z,56.20
2018-05-06T00:51:51.885Z,56.40
2018-05-06T00:54:30.340Z,56.70
2018-05-06T00:56:56.569Z,56.90
2018-05-06T00:59:22.730Z,57.20
2018-05-06T01:01:48.945Z,57.20
2018-05-06T01:04:15.109Z,57.30
2018-05-06T01:06:41.335Z,57.50
2018-05-06T01:09:07.499Z,57.50
2018-05-06T01:11:33.723Z,57.40
2018-05-06T01:13:59.885Z,57.80
2018-05-06T01:16:26.081Z,58.20
2018-05-06T01:18:52.259Z,58.30
2018-05-06T01:21:18.437Z,57.90
2018-05-06T01:23:44.592Z,57.90
2018-05-06T01:26:10.783Z,57.80
2018-05-06T01:28:36.983Z,57.70
2018-05-06T01:31:03.221Z,58.00
2018-05-06T01:33:29.390Z,58.10
2018-05-06T01:35:55.588Z,57.90
2018-05-06T01:38:21.786Z,58.20
2018-05-06T01:40:48.731Z,58.70
2018-05-06T01:43:15.958Z,58.80
2018-05-06T01:45:42.155Z,58.80
2018-05-06T01:48:08.336Z,58.70
2018-05-06T01:50:35.285Z,58.90
2018-05-06T01:53:01.446Z,58.90
2018-05-06T01:55:27.649Z,59.20
2018-05-06T01:57:53.817Z,59.50
2018-05-06T02:00:20.027Z,59.60
2018-05-06T02:02:46.216Z,60.20
2018-05-06T02:05:16.237Z,60.30
2018-05-06T02:07:42.425Z,60.30
2018-05-06T02:10:08.597Z,60.50
2018-05-06T02:12:34.787Z,60.90
2018-05-06T02:15:00.971Z,61.40
2018-05-06T02:17:27.145Z,61.40
2018-05-06T02:19:53.314Z,61.30
2018-05-06T02:22:19.505Z,61.60
2018-05-06T02:24:45.690Z,61.80
2018-05-06T02:27:11.935Z,62.00
2018-05-06T02:29:38.094Z,62.20
2018-05-06T02:32:05.071Z,62.50
2018-05-06T02:34:31.257Z,62.50
2018-05-06T02:36:58.189Z,62.90
2018-05-06T02:39:24.423Z,62.90
2018-05-06T02:41:50.634Z,63.30
2018-05-06T02:44:16.835Z,63.30
2018-05-06T02:46:43.051Z,64.00
2018-05-06T02:49:09.226Z,63.80
2018-05-06T02:51:35.429Z,64.00
2018-05-06T02:54:01.604Z,64.40
2018-05-06T02:56:27.811Z,64.80
2018-05-06T02:58:53.991Z,64.80
2018-05-06T03:01:20.213Z,65.40
2018-05-06T03:03:46.378Z,65.00
2018-05-06T03:06:12.591Z,64.60
2018-05-06T03:08:38.749Z,64.30
2018-05-06T03:11:04.991Z,64.30
2018-05-06T03:13:31.894Z,64.10
2018-05-06T03:15:58.839Z,63.80
2018-05-06T03:18:25.015Z,63.80
2018-05-06T03:20:51.195Z,63.80
2018-05-06T03:23:17.390Z,63.90
2018-05-06T03:25:43.627Z,63.90
2018-05-06T03:28:09.874Z,63.90
2018-05-06T03:30:36.045Z,64.30
2018-05-06T03:33:02.262Z,64.30
2018-05-06T03:35:29.165Z,64.90
2018-05-06T03:37:55.386Z,64.70
2018-05-06T03:40:21.573Z,65.00
2018-05-06T03:42:47.766Z,65.20
2018-05-06T03:45:13.954Z,65.30
2018-05-06T03:47:40.178Z,65.20
2018-05-06T03:50:06.474Z,65.10
2018-05-06T03:52:33.394Z,65.70
2018-05-06T03:54:59.615Z,65.50
2018-05-06T03:57:38.084Z,65.70
2018-05-06T04:00:16.470Z,65.10
2018-05-06T04:02:43.414Z,65.70
2018-05-06T04:05:09.594Z,65.70
2018-05-06T04:07:35.775Z,65.90
2018-05-06T04:10:02.005Z,66.50
2018-05-06T04:12:28.222Z,66.20
2018-05-06T04:14:55.133Z,66.50
2018-05-06T04:17:21.330Z,66.50
2018-05-06T04:19:47.522Z,66.00
2018-05-06T04:22:14.473Z,63.90
2018-05-06T04:24:40.669Z,63.80
2018-05-06T04:27:06.877Z,64.30
2018-05-06T04:29:33.050Z,64.20
2018-05-06T04:32:00.015Z,63.70
2018-05-06T04:34:26.193Z,63.60
2018-05-06T04:36:52.381Z,64.10
2018-05-06T04:39:19.587Z,64.10
2018-05-06T04:41:46.513Z,63.30
2018-05-06T04:44:12.795Z,63.30
2018-05-06T04:46:38.889Z,62.80
2018-05-06T04:49:05.225Z,63.60
2018-05-06T04:51:31.394Z,63.40
2018-05-06T04:53:57.578Z,62.90
2018-05-06T04:56:23.754Z,63.10
2018-05-06T04:58:49.951Z,62.70
2018-05-06T05:01:16.124Z,62.50
2018-05-06T05:03:42.342Z,62.20
2018-05-06T05:06:08.501Z,62.00
2018-05-06T05:08:35.481Z,61.50
2018-05-06T05:11:01.665Z,61.50
2018-05-06T05:13:28.618Z,60.50
2018-05-06T05:15:55.535Z,60.90
2018-05-06T05:18:21.730Z,60.90
2018-05-06T05:20:48.004Z,60.00
2018-05-06T05:23:14.177Z,60.10
2018-05-06T05:25:40.355Z,60.10
2018-05-06T05:28:06.558Z,60.20
2018-05-06T05:30:32.756Z,59.40
2018-05-06T05:32:58.949Z,59.40
2018-05-06T05:35:25.871Z,59.40
2018-05-06T05:37:52.336Z,59.40
2018-05-06T05:40:18.803Z,59.90
2018-05-06T05:42:45.079Z,58.10
2018-05-06T05:45:12.001Z,58.20
2018-05-06T05:47:38.322Z,58.20
2018-05-06T05:50:04.455Z,57.20
2018-05-06T05:52:30.622Z,57.10
2018-05-06T05:54:57.595Z,56.60
2018-05-06T05:57:23.762Z,56.50
2018-05-06T05:59:49.970Z,56.20
2018-05-06T06:02:16.154Z,55.80
2018-05-06T06:04:42.332Z,56.20
2018-05-06T06:07:08.502Z,56.20
2018-05-06T06:09:34.728Z,55.00
2018-05-06T06:12:00.925Z,55.30
2018-05-06T06:14:27.134Z,54.90
2018-05-06T06:16:53.314Z,54.90
2018-05-06T06:19:19.509Z,54.90
2018-05-06T06:21:45.690Z,54.10
2018-05-06T06:24:11.894Z,54.20
2018-05-06T06:26:38.070Z,54.30
2018-05-06T06:29:04.266Z,54.90
2018-05-06T06:31:30.445Z,55.10
2018-05-06T06:33:56.665Z,54.80
2018-05-06T06:36:23.673Z,54.70
2018-05-06T06:38:49.881Z,54.60
2018-05-06T06:41:16.108Z,54.80
2018-05-06T06:43:42.287Z,53.90
2018-05-06T06:46:08.499Z,53.60
2018-05-06T06:48:34.710Z,54.00
2018-05-06T06:51:00.884Z,53.90
2018-05-06T06:53:27.074Z,53.20
2018-05-06T06:55:53.279Z,53.60
2018-05-06T06:58:20.250Z,53.90
2018-05-06T07:00:46.421Z,53.90
2018-05-06T07:03:13.341Z,53.20
2018-05-06T07:05:39.527Z,53.10
2018-05-06T07:08:05.713Z,52.50
2018-05-06T07:10:32.629Z,51.10
2018-05-06T07:12:58.821Z,51.20
2018-05-06T07:15:25.014Z,50.40
2018-05-06T07:17:51.279Z,50.90
2018-05-06T07:20:17.406Z,50.70
2018-05-06T07:22:43.631Z,50.80
2018-05-06T07:25:09.863Z,49.00
2018-05-06T07:27:36.050Z,48.70
2018-05-06T07:30:02.324Z,48.10
2018-05-06T07:32:28.417Z,49.80
2018-05-06T07:34:54.670Z,48.10
2018-05-06T07:37:20.848Z,50.20
2018-05-06T07:39:47.106Z,48.50
2018-05-06T07:42:13.274Z,47.70
2018-05-06T07:44:39.453Z,47.70
2018-05-06T07:47:05.618Z,46.80
2018-05-06T07:49:31.817Z,46.70
2018-05-06T07:51:57.981Z,45.50
2018-05-06T07:54:24.172Z,45.40
2018-05-06T07:56:50.353Z,45.30
2018-05-06T07:59:16.565Z,44.30
2018-05-06T08:01:42.785Z,46.60
2018-05-06T08:04:09.013Z,46.80
2018-05-06T08:06:35.177Z,46.50
2018-05-06T08:09:01.386Z,45.60
2018-05-06T08:11:27.576Z,46.50
2018-05-06T08:13:53.756Z,45.40
2018-05-06T08:16:20.756Z,43.90
2018-05-06T08:18:46.861Z,43.80
2018-05-06T08:21:13.034Z,43.50
2018-05-06T08:23:39.241Z,43.60
2018-05-06T08:26:05.417Z,43.60
2018-05-06T08:28:32.325Z,45.20
2018-05-06T08:30:58.521Z,45.20
2018-05-06T08:33:24.673Z,47.10
2018-05-06T08:35:50.850Z,46.80
2018-05-06T08:38:17.028Z,45.30
2018-05-06T08:40:43.221Z,44.90
2018-05-06T08:43:09.412Z,45.60
2018-05-06T08:45:35.594Z,43.00
2018-05-06T08:48:02.039Z,42.50
2018-05-06T08:50:28.263Z,41.60
2018-05-06T08:52:54.426Z,43.20
2018-05-06T08:55:20.611Z,44.60
2018-05-06T08:57:46.782Z,43.70
2018-05-06T09:00:12.989Z,43.80
2018-05-06T09:02:39.166Z,42.90
2018-05-06T09:05:06.386Z,41.40
2018-05-06T09:07:32.626Z,41.70
2018-05-06T09:09:58.830Z,40.30
2018-05-06T09:12:25.027Z,39.80
2018-05-06T09:14:52.042Z,41.10
2018-05-06T09:17:18.216Z,41.30
2018-05-06T09:19:44.451Z,40.10
2018-05-06T09:22:10.624Z,38.50
2018-05-06T09:24:36.929Z,38.80
2018-05-06T09:27:03.933Z,37.60
2018-05-06T09:29:30.109Z,37.60
2018-05-06T09:31:56.301Z,39.30
2018-05-06T09:34:22.500Z,37.00
2018-05-06T09:36:48.700Z,38.60
2018-05-06T09:39:14.901Z,38.60
2018-05-06T09:41:41.882Z,37.50
2018-05-06T09:44:08.039Z,37.40
2018-05-06T09:46:34.231Z,37.00
2018-05-06T09:49:00.399Z,38.00
2018-05-06T09:51:26.660Z,38.00
2018-05-06T09:53:52.922Z,35.20
2018-05-06T09:56:19.065Z,36.90
2018-05-06T09:58:45.286Z,34.30
2018-05-06T10:01:11.488Z,33.10
2018-05-06T10:03:37.661Z,33.30
2018-05-06T10:06:03.874Z,34.60
2018-05-06T10:08:30.031Z,33.80
2018-05-06T10:10:56.952Z,33.60
2018-05-06T10:13:23.110Z,33.60
2018-05-06T10:15:50.120Z,33.40
2018-05-06T10:18:16.242Z,33.40
2018-05-06T10:20:42.429Z,35.00
2018-05-06T10:23:08.641Z,34.30
2018-05-06T10:25:35.641Z,35.30
2018-05-06T10:28:01.881Z,35.30
2018-05-06T10:30:28.055Z,33.80
2018-05-06T10:32:54.212Z,34.20
2018-05-06T10:35:20.470Z,33.40
2018-05-06T10:37:46.682Z,33.50
2018-05-06T10:40:12.889Z,32.20
2018-05-06T10:42:39.228Z,34.30
2018-05-06T10:45:05.427Z,34.00
2018-05-06T10:47:31.631Z,34.70
2018-05-06T10:49:57.791Z,35.00
2018-05-06T10:52:24.023Z,34.90
2018-05-06T10:54:50.187Z,35.30
2018-05-06T10:57:16.386Z,37.10
2018-05-06T10:59:42.541Z,35.90
2018-05-06T11:02:08.755Z,35.80
2018-05-06T11:04:34.972Z,36.60
2018-05-06T11:07:01.224Z,36.30
2018-05-06T11:09:27.409Z,35.50
2018-05-06T11:11:53.602Z,34.00
2018-05-06T11:14:19.790Z,34.40
2018-05-06T11:16:45.983Z,35.40
2018-05-06T11:19:12.183Z,36.80
2018-05-06T11:21:39.136Z,35.90
2018-05-06T11:24:05.306Z,35.80
2018-05-06T11:26:31.541Z,35.00
2018-05-06T11:28:57.698Z,34.90
2018-05-06T11:31:24.617Z,35.50
2018-05-06T11:33:50.804Z,35.50
2018-05-06T11:36:16.994Z,35.30
2018-05-06T11:38:43.174Z,35.60
2018-05-06T11:41:09.407Z,34.70
2018-05-06T11:43:35.576Z,35.30
2018-05-06T11:46:01.750Z,35.10
2018-05-06T11:48:27.913Z,34.60
2018-05-06T11:50:54.088Z,36.50
2018-05-06T11:53:20.292Z,35.40
2018-05-06T11:55:46.512Z,36.00
2018-05-06T11:58:12.694Z,35.70
2018-05-06T12:00:39.918Z,35.70
2018-05-06T12:03:06.098Z,34.90
2018-05-06T12:05:32.282Z,36.00
2018-05-06T12:07:58.521Z,35.10
2018-05-06T12:10:24.693Z,35.80
2018-05-06T12:12:50.946Z,36.00
2018-05-06T12:15:17.106Z,37.30
2018-05-06T12:17:43.342Z,35.40
2018-05-06T12:20:09.515Z,34.30
2018-05-06T12:22:35.688Z,34.60
2018-05-06T12:25:01.869Z,34.90
2018-05-06T12:27:28.066Z,36.70
2018-05-06T12:29:54.265Z,36.10
2018-05-06T12:32:20.450Z,35.10
2018-05-06T12:34:46.626Z,35.60
2018-05-06T12:37:12.865Z,37.90
2018-05-06T12:39:39.112Z,36.40
2018-05-06T12:42:05.318Z,36.20
2018-05-06T12:44:31.476Z,35.50
2018-05-06T12:46:58.422Z,35.80
2018-05-06T12:49:24.622Z,35.80
2018-05-06T12:51:50.789Z,35.40
2018-05-06T12:54:16.957Z,34.70
2018-05-06T12:56:43.149Z,34.00
2018-05-06T12:59:09.319Z,33.30
2018-05-06T13:01:35.506Z,33.40
2018-05-06T13:04:01.737Z,35.00
2018-05-06T13:06:27.940Z,34.70
2018-05-06T13:08:54.150Z,34.70
2018-05-06T13:11:20.373Z,34.60
2018-05-06T13:13:46.562Z,35.80
2018-05-06T13:16:12.746Z,33.70
2018-05-06T13:18:38.926Z,35.00
2018-05-06T13:21:05.126Z,34.30
2018-05-06T13:23:31.328Z,34.70
2018-05-06T13:25:57.518Z,35.00
2018-05-06T13:28:23.704Z,35.30
2018-05-06T13:30:49.894Z,34.00
2018-05-06T13:33:16.077Z,34.80
2018-05-06T13:35:42.237Z,33.60
2018-05-06T13:38:08.437Z,33.30
2018-05-06T13:40:34.678Z,34.00
2018-05-06T13:43:00.870Z,33.60
2018-05-06T13:45:27.035Z,33.90
2018-05-06T13:47:53.221Z,34.10
2018-05-06T13:50:19.410Z,35.30
2018-05-06T13:52:45.619Z,34.50
2018-05-06T13:55:11.799Z,34.80
2018-05-06T13:57:37.994Z,34.60
2018-05-06T14:00:04.987Z,33.10
2018-05-06T14:02:31.169Z,33.10
2018-05-06T14:04:57.351Z,32.80
2018-05-06T14:07:23.548Z,33.80
2018-05-06T14:09:49.738Z,33.70
2018-05-06T14:12:15.916Z,33.90
2018-05-06T14:14:42.157Z,33.50
2018-05-06T14:17:08.346Z,34.30
2018-05-06T14:19:34.525Z,33.10
2018-05-06T14:22:00.754Z,33.30
2018-05-06T14:24:26.955Z,33.20
2018-05-06T14:26:53.127Z,32.30
2018-05-06T14:29:19.320Z,34.50
2018-05-06T14:31:45.502Z,33.60
2018-05-06T14:34:11.709Z,34.40
2018-05-06T14:36:37.874Z,35.00
2018-05-06T14:39:04.985Z,33.80
2018-05-06T14:41:31.143Z,35.00
2018-05-06T14:43:57.328Z,34.30
2018-05-06T14:46:35.733Z,34.10
2018-05-06T14:49:01.909Z,33.60
2018-05-06T14:51:28.071Z,34.70
2018-05-06T14:53:54.242Z,34.80
2018-05-06T14:56:20.415Z,35.10
2018-05-06T14:58:47.590Z,35.00
2018-05-06T15:01:13.795Z,33.90
2018-05-06T15:03:40.035Z,34.00
2018-05-06T15:06:06.137Z,35.30
2018-05-06T15:08:32.310Z,34.10
2018-05-06T15:10:59.209Z,34.10
2018-05-06T15:13:25.414Z,34.00
2018-05-06T15:15:51.603Z,35.00
2018-05-06T15:18:18.557Z,34.10
2018-05-06T15:20:45.491Z,33.80
2018-05-06T15:23:12.626Z,35.50
2018-05-06T15:25:38.807Z,35.40
2018-05-06T15:28:05.005Z,34.40
2018-05-06T15:30:31.971Z,33.70
2018-05-06T15:32:58.142Z,33.80
2018-05-06T15:35:24.326Z,33.50
2018-05-06T15:37:50.480Z,33.60
2018-05-06T15:40:16.693Z,34.10
2018-05-06T15:42:42.856Z,33.90
2018-05-06T15:45:09.037Z,33.80
2018-05-06T15:47:35.213Z,32.10
2018-05-06T15:50:01.399Z,30.10
2018-05-06T15:52:27.586Z,28.70
2018-05-06T15:54:53.778Z,27.50
2018-05-06T15:57:19.999Z,26.40
2018-05-06T15:59:46.249Z,24.70
2018-05-06T16:02:34.433Z,23.60
2018-05-06T16:05:00.641Z,22.70
2018-05-06T16:07:26.973Z,22.00
2018-05-06T16:09:53.893Z,21.10
2018-05-06T16:12:20.090Z,21.10
2018-05-06T16:14:46.326Z,20.30
2018-05-06T16:17:12.525Z,20.20
2018-05-06T16:19:38.717Z,19.40
2018-05-06T16:22:05.647Z,19.70
2018-05-06T16:24:31.819Z,19.70
2018-05-06T16:26:57.986Z,19.60
2018-05-06T16:29:24.183Z,19.30
2018-05-06T16:31:51.221Z,19.30
2018-05-06T16:34:17.510Z,18.70
2018-05-06T16:36:43.802Z,19.50
2018-05-06T16:39:10.013Z,19.80
2018-05-06T16:41:36.281Z,19.20
2018-05-06T16:44:03.278Z,18.90
2018-05-06T16:46:29.440Z,18.80
2018-05-06T16:48:55.702Z,19.10
2018-05-06T16:51:21.886Z,19.10
2018-05-06T16:53:48.061Z,19.40
2018-05-06T16:56:15.002Z,19.50
2018-05-06T16:58:41.209Z,19.40
2018-05-06T17:01:07.430Z,19.50
2018-05-06T17:03:33.613Z,20.10
2018-05-06T17:05:59.838Z,18.90
2018-05-06T17:08:26.013Z,19.20
2018-05-06T17:10:52.227Z,19.50
2018-05-06T17:13:18.405Z,19.80
2018-05-06T17:15:44.613Z,19.80
2018-05-06T17:18:10.797Z,20.10
2018-05-06T17:20:36.990Z,19.70
2018-05-06T17:23:03.270Z,19.80
2018-05-06T17:25:29.521Z,20.00
2018-05-06T17:27:55.762Z,20.50
2018-05-06T17:30:21.966Z,20.00
2018-05-06T17:32:48.166Z,20.60
2018-05-06T17:35:14.378Z,19.70
2018-05-06T17:37:40.565Z,20.50
2018-05-06T17:40:06.767Z,21.00
2018-05-06T17:42:32.946Z,21.10
2018-05-06T17:44:59.138Z,21.90
2018-05-06T17:47:26.052Z,23.20
2018-05-06T17:49:52.327Z,23.20
2018-05-06T17:52:18.570Z,23.90
2018-05-06T17:54:44.799Z,24.80
2018-05-06T17:57:10.977Z,24.90
2018-05-06T17:59:37.157Z,24.80
2018-05-06T18:02:03.358Z,24.00
2018-05-06T18:04:29.605Z,24.00
2018-05-06T18:06:55.976Z,23.80
2018-05-06T18:09:22.161Z,23.90
2018-05-06T18:11:48.347Z,23.60
2018-05-06T18:14:15.301Z,23.70
2018-05-06T18:16:41.582Z,23.70
2018-05-06T18:19:07.859Z,23.60
2018-05-06T18:21:34.870Z,24.20
2018-05-06T18:24:01.066Z,24.10
2018-05-06T18:26:27.325Z,24.60
2018-05-06T18:28:53.526Z,25.00
2018-05-06T18:31:19.756Z,25.30
2018-05-06T18:33:46.070Z,25.50
2018-05-06T18:36:12.441Z,26.10
2018-05-06T18:38:38.687Z,25.70
2018-05-06T18:41:04.935Z,26.40
2018-05-06T18:43:31.121Z,26.70
2018-05-06T18:45:57.374Z,27.30
2018-05-06T18:48:23.666Z,27.60
2018-05-06T18:50:50.668Z,29.20
2018-05-06T18:53:17.698Z,30.00
2018-05-06T18:55:44.059Z,30.00
2018-05-06T18:58:10.310Z,30.60
2018-05-06T19:00:36.544Z,31.90
2018-05-06T19:03:02.799Z,32.30
2018-05-06T19:05:29.035Z,33.20
2018-05-06T19:07:55.266Z,33.50
2018-05-06T19:10:21.475Z,34.10
2018-05-06T19:12:47.691Z,35.10
2018-05-06T19:15:14.003Z,36.30
2018-05-06T19:17:40.270Z,36.40
2018-05-06T19:20:06.561Z,37.00
2018-05-06T19:22:32.802Z,37.30
2018-05-06T19:24:59.055Z,37.90
2018-05-06T19:27:25.509Z,38.40
2018-05-06T19:29:51.818Z,38.10
2018-05-06T19:32:18.037Z,38.60
2018-05-06T19:34:44.471Z,39.60
2018-05-06T19:37:10.713Z,39.80
2018-05-06T19:39:36.949Z,39.80
2018-05-06T19:42:03.281Z,40.60
2018-05-06T19:44:29.519Z,41.00
2018-05-06T19:46:56.482Z,41.80
2018-05-06T19:49:22.679Z,41.70
2018-05-06T19:51:49.084Z,42.10
2018-05-06T19:54:15.273Z,42.30
2018-05-06T19:56:41.569Z,42.50
2018-05-06T19:59:07.832Z,43.20
2018-05-06T20:01:34.061Z,43.50
2018-05-06T20:04:00.473Z,44.20
2018-05-06T20:06:26.697Z,44.20
2018-05-06T20:08:52.892Z,44.20
2018-05-06T20:11:19.093Z,45.10
2018-05-06T20:13:45.339Z,45.20
2018-05-06T20:16:11.845Z,45.20
2018-05-06T20:18:38.164Z,45.30
2018-05-06T20:21:04.377Z,45.90
2018-05-06T20:23:30.546Z,46.20
2018-05-06T20:25:56.863Z,46.40
2018-05-06T20:28:23.238Z,47.10
2018-05-06T20:30:49.444Z,47.00
2018-05-06T20:33:15.650Z,47.20
2018-05-06T20:35:41.847Z,47.50
2018-05-06T20:38:08.405Z,48.00
2018-05-06T20:40:35.470Z,48.00
2018-05-06T20:43:01.995Z,48.00
2018-05-06T20:45:28.198Z,48.10
2018-05-06T20:47:54.387Z,48.40
2018-05-06T20:50:20.588Z,48.70
2018-05-06T20:52:46.835Z,49.30
2018-05-06T20:55:13.199Z,49.70
2018-05-06T20:57:39.510Z,49.90
2018-05-06T21:00:06.040Z,50.30
2018-05-06T21:02:32.243Z,50.70
2018-05-06T21:04:58.438Z,50.80
2018-05-06T21:07:24.961Z,51.00
2018-05-06T21:09:51.167Z,51.00
2018-05-06T21:12:18.137Z,51.60
2018-05-06T21:14:44.475Z,51.60
2018-05-06T21:17:10.675Z,51.50
2018-05-06T21:19:36.878Z,51.70
2018-05-06T21:22:03.275Z,51.90
2018-05-06T21:24:29.518Z,52.40
2018-05-06T21:26:55.717Z,52.50
2018-05-06T21:29:21.881Z,52.70
2018-05-06T21:31:48.165Z,52.90
2018-05-06T21:34:15.240Z,53.20
2018-05-06T21:36:41.520Z,53.20
2018-05-06T21:39:08.546Z,53.20
2018-05-06T21:41:34.637Z,53.10
2018-05-06T21:44:00.833Z,53.50
2018-05-06T21:46:27.019Z,53.60
2018-05-06T21:48:53.196Z,53.50
2018-05-06T21:51:19.350Z,53.60
2018-05-06T21:53:45.535Z,53.90
2018-05-06T21:56:11.713Z,54.40
2018-05-06T21:58:37.897Z,54.30
2018-05-06T22:01:04.099Z,54.60
2018-05-06T22:03:31.022Z,54.70
2018-05-06T22:05:57.201Z,54.60
2018-05-06T22:08:23.381Z,55.50
2018-05-06T22:10:49.545Z,55.40
2018-05-06T22:13:15.730Z,55.40
2018-05-06T22:15:41.899Z,55.90
2018-05-06T22:18:08.083Z,56.20
2018-05-06T22:20:34.253Z,56.30
2018-05-06T22:23:00.429Z,57.20
2018-05-06T22:25:26.598Z,57.20
2018-05-06T22:27:52.773Z,57.40
2018-05-06T22:30:18.967Z,57.60
2018-05-06T22:32:45.162Z,58.00
2018-05-06T22:35:11.953Z,58.30
2018-05-06T22:37:38.146Z,58.00
2018-05-06T22:40:04.365Z,58.90
2018-05-06T22:42:30.542Z,58.20
2018-05-06T22:44:56.808Z,58.10
2018-05-06T22:47:23.756Z,58.60
2018-05-06T22:49:49.938Z,58.50
2018-05-06T22:52:16.118Z,58.70
2018-05-06T22:54:49.282Z,59.00
2018-05-06T22:57:15.486Z,59.10
2018-05-06T22:59:41.691Z,59.30
2018-05-06T23:02:07.880Z,59.40
2018-05-06T23:04:34.058Z,59.20
2018-05-06T23:07:00.214Z,59.60
2018-05-06T23:09:26.394Z,59.70
2018-05-06T23:11:52.568Z,59.90
2018-05-06T23:14:18.742Z,60.10
2018-05-06T23:16:44.895Z,59.90
2018-05-06T23:19:11.073Z,60.00
2018-05-06T23:21:37.276Z,59.90
2018-05-06T23:24:03.450Z,60.30
2018-05-06T23:26:29.638Z,60.50
2018-05-06T23:28:55.865Z,60.80
2018-05-06T23:31:22.050Z,60.70
2018-05-06T23:33:48.242Z,60.40
2018-05-06T23:36:14.428Z,60.00
2018-05-06T23:38:41.445Z,60.70
2018-05-06T23:41:07.629Z,60.50
2018-05-06T23:43:33.809Z,60.50
2018-05-06T23:45:59.974Z,60.40
2018-05-06T23:48:26.168Z,60.50
2018-05-06T23:50:52.338Z,60.40
2018-05-06T23:53:18.561Z,60.90
2018-05-06T23:55:44.713Z,60.70
2018-05-06T23:58:10.930Z,61.10
